Time;durP1;ratioP1;P1;durP2;ratioP2;P2;SDS_P1;SDS_P2;PMS_P1;PMS_P2;Temp;Humidity;BMP_temperature;BMP_pressure;BME280_temperature;BME280_humidity;BME280_pressure;Samples;Min_cycle;Max_cycle;Signal;HPM_P1;HPM_P2
2021/04/14 00:02:01;;;;;;;8.55;6.18;;;2.40;99.90;;;;;;5062859;28;20482;-72
2021/04/14 00:04:27;;;;;;;7.20;5.45;;;2.40;99.90;;;;;;5048661;28;20181;-72
2021/04/14 00:06:55;;;;;;;8.82;6.10;;;2.40;99.90;;;;;;5056617;28;20527;-72
2021/04/14 00:09:21;;;;;;;6.50;5.00;;;2.50;99.90;;;;;;5053339;28;20108;-72
2021/04/14 00:11:47;;;;;;;8.07;5.20;;;2.10;99.90;;;;;;5052230;28;20121;-71
2021/04/14 00:14:13;;;;;;;7.68;5.75;;;2.10;99.90;;;;;;5058819;28;20073;-72
2021/04/14 00:16:39;;;;;;;7.15;5.70;;;2.10;99.90;;;;;;5036324;28;20075;-74
2021/04/14 00:19:05;;;;;;;8.85;5.80;;;2.20;99.90;;;;;;5051282;28;20100;-72
2021/04/14 00:21:31;;;;;;;8.25;5.75;;;2.10;99.90;;;;;;5060789;28;20468;-72
2021/04/14 00:23:58;;;;;;;8.52;6.15;;;1.80;99.90;;;;;;5054623;28;20526;-72
2021/04/14 00:26:24;;;;;;;8.50;6.07;;;2.10;99.90;;;;;;5036803;28;20176;-72
2021/04/14 00:28:50;;;;;;;7.50;5.93;;;2.20;99.90;;;;;;5052310;28;20103;-72
2021/04/14 00:31:16;;;;;;;8.18;5.35;;;2.20;99.90;;;;;;5047614;28;20570;-72
2021/04/14 00:33:43;;;;;;;7.80;5.55;;;1.90;99.90;;;;;;5049451;28;20078;-73
2021/04/14 00:36:10;;;;;;;7.50;5.53;;;2.00;99.90;;;;;;5047381;28;20070;-73
2021/04/14 00:38:35;;;;;;;9.13;5.68;;;2.20;99.90;;;;;;5051088;28;20103;-72
2021/04/14 00:41:07;;;;;;;11.32;6.40;;;2.20;99.90;;;;;;5048288;28;20532;-73
2021/04/14 00:43:35;;;;;;;8.68;5.97;;;2.40;99.90;;;;;;5050120;28;20688;-72
2021/04/14 00:46:01;;;;;;;8.55;5.63;;;2.30;99.90;;;;;;5032499;28;20148;-73
2021/04/14 00:48:27;;;;;;;8.88;6.75;;;2.00;99.90;;;;;;5058897;28;20081;-72
2021/04/14 00:50:53;;;;;;;8.57;6.05;;;1.70;99.90;;;;;;5052540;28;20185;-73
2021/04/14 00:53:20;;;;;;;9.32;6.75;;;1.80;99.90;;;;;;5047054;28;20068;-72
2021/04/14 00:55:45;;;;;;;7.57;5.88;;;2.10;99.90;;;;;;5049558;28;20062;-74
2021/04/14 00:58:12;;;;;;;9.10;6.57;;;2.00;99.90;;;;;;5029769;28;20211;-74
2021/04/14 01:00:44;;;;;;;8.60;6.57;;;2.10;99.90;;;;;;5051587;28;20081;-73
2021/04/14 01:03:34;;;;;;;8.45;6.20;;;2.10;99.90;;;;;;5051317;28;20080;-74
2021/04/14 01:06:07;;;;;;;8.90;6.47;;;2.10;99.90;;;;;;5032297;28;20074;-72
2021/04/14 01:08:34;;;;;;;7.57;5.25;;;1.90;99.90;;;;;;5051973;28;20152;-72
2021/04/14 01:10:59;;;;;;;8.00;5.65;;;1.70;99.90;;;;;;5050992;28;20558;-72
2021/04/14 01:13:25;;;;;;;7.38;5.85;;;1.80;99.90;;;;;;5033803;28;20168;-72
2021/04/14 01:15:51;;;;;;;8.20;5.90;;;2.00;99.90;;;;;;5032049;28;20447;-72
2021/04/14 01:18:27;;;;;;;8.93;5.93;;;2.10;99.90;;;;;;5033292;28;20112;-73
2021/04/14 01:20:54;;;;;;;8.43;5.80;;;1.70;99.90;;;;;;5031853;28;20188;-73
2021/04/14 01:23:21;;;;;;;10.13;6.28;;;1.90;99.90;;;;;;5056664;28;20097;-72
2021/04/14 01:25:47;;;;;;;8.85;6.70;;;2.10;99.90;;;;;;5050137;28;20089;-72
2021/04/14 01:28:14;;;;;;;10.45;6.57;;;2.10;99.90;;;;;;5033454;28;20097;-72
2021/04/14 01:30:40;;;;;;;9.55;6.13;;;2.20;99.90;;;;;;5053866;28;20093;-73
2021/04/14 01:33:07;;;;;;;8.52;6.50;;;2.30;99.90;;;;;;5050030;28;20177;-72
2021/04/14 01:35:33;;;;;;;8.85;6.43;;;2.40;99.90;;;;;;5049919;28;20070;-72
2021/04/14 01:37:59;;;;;;;7.82;5.97;;;2.40;99.90;;;;;;5050501;28;20080;-73
2021/04/14 01:40:26;;;;;;;8.85;6.25;;;2.40;99.90;;;;;;5049580;28;20081;-72
2021/04/14 01:42:54;;;;;;;8.32;6.18;;;2.40;99.90;;;;;;5049914;28;20100;-72
2021/04/14 01:45:25;;;;;;;8.60;5.63;;;2.40;99.90;;;;;;5049758;28;20101;-73
2021/04/14 01:47:50;;;;;;;7.85;6.03;;;2.40;99.90;;;;;;5050265;28;20139;-72
2021/04/14 01:50:16;;;;;;;9.43;5.93;;;2.50;99.90;;;;;;5032527;28;20062;-72
2021/04/14 01:52:41;;;;;;;9.20;6.97;;;2.30;99.90;;;;;;5061753;28;20154;-72
2021/04/14 01:55:09;;;;;;;8.57;6.07;;;2.20;99.90;;;;;;5050991;28;20153;-73
2021/04/14 01:57:34;;;;;;;10.15;7.35;;;2.30;99.90;;;;;;5049432;28;20081;-73
2021/04/14 02:00:00;;;;;;;10.23;6.70;;;2.40;99.90;;;;;;5050187;28;20411;-72
2021/04/14 02:02:25;;;;;;;9.63;7.00;;;2.50;99.90;;;;;;5032118;28;20762;-73
2021/04/14 02:04:51;;;;;;;9.88;6.68;;;2.40;99.90;;;;;;5050005;28;20086;-73
2021/04/14 02:07:17;;;;;;;9.43;6.45;;;2.40;99.90;;;;;;5049567;28;20101;-73
2021/04/14 02:09:42;;;;;;;9.02;6.78;;;2.40;99.90;;;;;;5050595;28;20069;-72
2021/04/14 02:12:09;;;;;;;10.00;7.38;;;2.20;99.90;;;;;;5050559;28;20527;-72
2021/04/14 02:14:35;;;;;;;10.18;6.65;;;2.40;99.90;;;;;;5031740;28;20081;-72
2021/04/14 02:17:01;;;;;;;10.60;7.30;;;2.40;99.90;;;;;;5047221;28;20547;-72
2021/04/14 02:19:27;;;;;;;10.35;6.85;;;2.50;99.90;;;;;;5041655;28;20080;-72
2021/04/14 02:21:53;;;;;;;9.48;6.82;;;2.20;99.90;;;;;;5041090;28;20101;-72
2021/04/14 02:24:19;;;;;;;9.98;6.75;;;2.10;99.90;;;;;;5063220;28;20093;-72
2021/04/14 02:26:44;;;;;;;10.45;7.20;;;2.10;99.90;;;;;;5047964;28;20132;-73
2021/04/14 02:29:10;;;;;;;9.88;8.07;;;2.20;99.90;;;;;;5050227;28;20566;-72
2021/04/14 02:31:35;;;;;;;9.18;7.07;;;2.30;99.90;;;;;;5049001;28;20093;-73
2021/04/14 02:34:13;;;;;;;10.32;7.25;;;2.20;99.90;;;;;;5049699;28;20196;-72
2021/04/14 02:36:39;;;;;;;9.63;7.20;;;2.30;99.90;;;;;;5048852;28;20127;-72
2021/04/14 02:39:07;;;;;;;10.30;7.30;;;2.40;99.90;;;;;;5049738;28;20087;-72
2021/04/14 02:41:33;;;;;;;10.52;7.43;;;2.10;99.90;;;;;;5049840;28;20097;-72
2021/04/14 02:43:59;;;;;;;10.80;7.95;;;2.10;99.90;;;;;;5031111;28;20085;-73
2021/04/14 02:46:24;;;;;;;11.43;7.28;;;1.90;99.90;;;;;;5048051;28;20111;-73
2021/04/14 02:48:51;;;;;;;11.05;7.25;;;1.60;99.90;;;;;;5049669;28;20097;-72
2021/04/14 02:51:18;;;;;;;9.68;7.40;;;1.80;99.90;;;;;;5050220;28;20118;-72
2021/04/14 02:53:43;;;;;;;10.43;7.15;;;2.00;99.90;;;;;;5048755;28;20081;-72
2021/04/14 02:56:09;;;;;;;10.02;6.97;;;2.00;99.90;;;;;;5048025;28;20073;-72
2021/04/14 02:58:35;;;;;;;9.65;7.18;;;2.20;99.90;;;;;;5050149;28;20412;-72
2021/04/14 03:01:01;;;;;;;10.82;8.13;;;2.10;99.90;;;;;;5050162;28;20094;-72
2021/04/14 03:03:27;;;;;;;12.07;8.13;;;2.10;99.90;;;;;;5048877;28;20077;-73
2021/04/14 03:05:54;;;;;;;12.30;8.65;;;1.70;99.90;;;;;;5048388;28;20604;-72
2021/04/14 03:08:20;;;;;;;10.80;7.30;;;1.80;99.90;;;;;;5048359;28;20089;-72
2021/04/14 03:10:46;;;;;;;10.57;7.07;;;1.80;99.90;;;;;;5049243;28;20076;-73
2021/04/14 03:13:11;;;;;;;12.57;7.80;;;1.40;99.90;;;;;;5048896;28;20074;-72
2021/04/14 03:15:40;;;;;;;10.23;7.25;;;1.50;99.90;;;;;;5047240;28;21147;-73
2021/04/14 03:18:11;;;;;;;11.98;7.95;;;1.80;99.90;;;;;;5048801;28;20946;-72
2021/04/14 03:20:36;;;;;;;12.77;8.93;;;1.70;99.90;;;;;;5049518;28;20108;-72
2021/04/14 03:23:03;;;;;;;12.27;8.75;;;1.50;99.90;;;;;;5059890;28;20434;-72
2021/04/14 03:25:33;;;;;;;11.73;8.02;;;1.60;99.90;;;;;;5048812;28;20416;-72
2021/04/14 03:28:03;;;;;;;11.40;8.02;;;1.50;99.90;;;;;;5030911;28;20102;-72
2021/04/14 03:30:29;;;;;;;10.13;7.30;;;1.70;99.90;;;;;;5047677;28;20461;-72
2021/04/14 03:32:55;;;;;;;11.57;7.45;;;1.40;99.90;;;;;;5048739;28;20073;-72
2021/04/14 03:35:25;;;;;;;10.77;7.60;;;1.60;99.90;;;;;;5048210;28;20078;-72
2021/04/14 03:37:50;;;;;;;10.63;7.13;;;1.60;99.90;;;;;;5030086;28;20164;-73
2021/04/14 03:40:17;;;;;;;11.95;8.13;;;1.60;99.90;;;;;;5046017;28;20160;-72
2021/04/14 03:42:43;;;;;;;11.35;7.78;;;1.60;99.90;;;;;;5047952;28;20086;-72
2021/04/14 03:45:15;;;;;;;10.30;6.90;;;1.50;99.90;;;;;;5048253;28;20161;-73
2021/04/14 03:47:41;;;;;;;11.55;8.13;;;1.80;99.90;;;;;;5048141;28;20121;-72
2021/04/14 03:50:10;;;;;;;12.25;8.85;;;1.50;99.90;;;;;;5048332;28;20090;-72
2021/04/14 03:52:35;;;;;;;12.10;7.45;;;1.30;99.90;;;;;;5055273;28;20104;-72
2021/04/14 03:55:01;;;;;;;10.82;7.60;;;1.20;99.90;;;;;;5050302;28;20077;-72
2021/04/14 03:57:27;;;;;;;10.20;7.45;;;1.20;99.90;;;;;;5048676;28;20092;-72
2021/04/14 03:59:52;;;;;;;10.38;7.05;;;1.30;99.90;;;;;;5048637;28;20066;-72
2021/04/14 04:02:18;;;;;;;12.88;9.25;;;1.70;99.90;;;;;;5047953;28;20093;-73
2021/04/14 04:04:43;;;;;;;10.80;7.72;;;1.80;99.90;;;;;;5048487;28;20088;-73
2021/04/14 04:07:09;;;;;;;13.20;8.07;;;1.70;99.90;;;;;;5029228;28;20127;-72
2021/04/14 04:09:35;;;;;;;10.80;7.88;;;1.80;99.90;;;;;;5048573;28;20104;-73
2021/04/14 04:12:01;;;;;;;11.35;7.55;;;1.70;99.90;;;;;;5046394;28;20097;-72
2021/04/14 04:14:32;;;;;;;10.57;7.35;;;1.60;99.90;;;;;;5048651;28;20069;-72
2021/04/14 04:16:57;;;;;;;12.27;8.10;;;1.40;99.90;;;;;;5029658;28;20073;-72
2021/04/14 04:19:23;;;;;;;10.38;7.03;;;1.50;99.90;;;;;;5047644;28;20084;-72
2021/04/14 04:21:49;;;;;;;10.90;8.02;;;1.40;99.90;;;;;;5029404;28;20090;-73
2021/04/14 04:24:14;;;;;;;10.93;7.47;;;1.60;99.90;;;;;;5052309;28;20078;-73
2021/04/14 04:26:40;;;;;;;10.48;7.80;;;1.60;99.90;;;;;;5047378;28;20093;-72
2021/04/14 04:29:05;;;;;;;10.52;7.38;;;1.50;99.90;;;;;;5041765;28;20070;-72
2021/04/14 04:31:31;;;;;;;10.40;7.03;;;1.50;99.90;;;;;;5055758;28;20466;-74
2021/04/14 04:33:56;;;;;;;11.85;7.53;;;1.60;99.90;;;;;;5053059;28;20163;-72
2021/04/14 04:36:22;;;;;;;12.00;7.35;;;1.70;99.90;;;;;;5032627;28;20070;-72
2021/04/14 04:38:47;;;;;;;11.32;8.02;;;1.90;99.90;;;;;;5053989;28;20088;-72
2021/04/14 04:41:13;;;;;;;12.93;7.80;;;1.70;99.90;;;;;;5050063;28;20101;-72
2021/04/14 04:43:40;;;;;;;11.52;7.55;;;1.70;99.90;;;;;;5029438;28;20077;-72
2021/04/14 04:46:06;;;;;;;9.35;7.18;;;1.80;99.90;;;;;;5053208;28;20077;-72
2021/04/14 04:48:32;;;;;;;11.23;7.88;;;1.80;99.90;;;;;;5038695;28;20085;-72
2021/04/14 04:50:58;;;;;;;10.95;7.93;;;1.90;99.90;;;;;;5036183;28;20101;-73
2021/04/14 04:53:24;;;;;;;11.02;8.05;;;1.80;99.90;;;;;;5063854;28;20569;-73
2021/04/14 04:55:51;;;;;;;12.35;7.32;;;1.70;99.90;;;;;;5055381;28;20450;-72
2021/04/14 04:58:18;;;;;;;10.98;7.65;;;1.50;99.90;;;;;;5034484;28;20476;-73
2021/04/14 05:00:46;;;;;;;10.95;6.95;;;1.70;99.90;;;;;;5050473;28;20159;-72
2021/04/14 05:03:14;;;;;;;11.93;7.03;;;1.90;99.90;;;;;;5051324;28;20513;-73
2021/04/14 05:05:41;;;;;;;11.82;7.72;;;1.90;99.90;;;;;;5053336;28;20164;-72
2021/04/14 05:08:08;;;;;;;12.82;8.18;;;1.70;99.90;;;;;;5050626;28;20543;-72
2021/04/14 05:10:35;;;;;;;12.93;8.43;;;1.50;99.90;;;;;;5034750;28;20446;-72
2021/04/14 05:13:02;;;;;;;10.85;8.20;;;1.70;99.90;;;;;;5051211;28;20082;-72
2021/04/14 05:15:33;;;;;;;8.88;6.68;;;1.60;99.90;;;;;;5032276;28;20095;-72
2021/04/14 05:17:59;;;;;;;9.30;6.97;;;1.20;99.90;;;;;;5062905;28;20109;-72
2021/04/14 05:20:26;;;;;;;9.77;7.43;;;1.10;99.90;;;;;;5051441;28;20073;-72
2021/04/14 05:22:51;;;;;;;18.52;8.57;;;1.40;99.90;;;;;;5055542;28;20137;-73
2021/04/14 05:25:21;;;;;;;11.18;7.90;;;1.50;99.90;;;;;;5053378;28;20459;-73
2021/04/14 05:27:48;;;;;;;11.75;8.23;;;1.50;99.90;;;;;;5049908;28;20097;-73
2021/04/14 05:30:14;;;;;;;12.52;7.35;;;1.80;99.90;;;;;;5050970;28;20152;-73
2021/04/14 05:32:41;;;;;;;12.75;7.20;;;1.80;99.90;;;;;;5051527;28;20113;-72
2021/04/14 05:35:08;;;;;;;11.30;8.10;;;1.80;99.90;;;;;;5058549;28;20084;-73
2021/04/14 05:37:34;;;;;;;11.57;7.40;;;1.90;99.90;;;;;;5056184;28;20073;-73
2021/04/14 05:39:59;;;;;;;12.07;8.70;;;1.80;99.90;;;;;;5031424;28;20077;-73
2021/04/14 05:42:25;;;;;;;11.02;8.60;;;1.90;99.90;;;;;;5050201;28;20172;-74
2021/04/14 05:44:50;;;;;;;14.00;8.55;;;2.00;99.90;;;;;;5041704;28;20164;-74
2021/04/14 05:47:17;;;;;;;12.07;7.80;;;2.10;99.90;;;;;;5028893;28;20443;-73
2021/04/14 05:49:42;;;;;;;11.98;8.65;;;2.20;99.90;;;;;;5052074;28;20088;-73
2021/04/14 05:52:08;;;;;;;13.75;8.60;;;2.20;99.90;;;;;;5039637;28;20109;-74
2021/04/14 05:54:33;;;;;;;12.02;7.85;;;2.10;99.90;;;;;;5049689;28;20497;-74
2021/04/14 05:56:59;;;;;;;10.80;7.07;;;2.30;99.90;;;;;;5035039;28;20085;-76
2021/04/14 05:59:25;;;;;;;10.95;7.43;;;2.50;99.90;;;;;;5031969;28;20113;-74
2021/04/14 06:01:50;;;;;;;11.20;7.80;;;2.20;99.90;;;;;;5064971;28;20104;-75
2021/04/14 06:04:17;;;;;;;10.52;7.13;;;2.20;99.90;;;;;;5055841;28;20088;-75
2021/04/14 06:06:43;;;;;;;11.35;6.90;;;2.50;99.90;;;;;;5053969;28;20151;-73
2021/04/14 06:09:09;;;;;;;9.80;6.40;;;2.50;99.90;;;;;;5031513;28;20531;-75
2021/04/14 06:11:36;;;;;;;11.27;6.80;;;2.30;99.90;;;;;;5037844;28;20188;-75
2021/04/14 06:14:03;;;;;;;8.10;5.95;;;2.50;99.90;;;;;;5049843;28;20065;-75
2021/04/14 06:16:29;;;;;;;8.00;5.75;;;2.40;99.90;;;;;;5048602;28;20078;-75
2021/04/14 06:18:54;;;;;;;8.55;6.13;;;2.40;99.90;;;;;;5049949;28;20580;-75
2021/04/14 06:21:20;;;;;;;9.20;6.35;;;2.70;99.90;;;;;;5033753;28;20101;-73
2021/04/14 06:23:47;;;;;;;9.68;6.55;;;2.50;99.90;;;;;;5036002;28;20081;-76
2021/04/14 06:29:13;;;;;;;10.48;6.45;;;2.70;99.90;;;;;;5018132;28;20134;-74
2021/04/14 06:31:40;;;;;;;9.43;6.47;;;2.90;99.90;;;;;;5046994;28;20167;-75
2021/04/14 06:34:17;;;;;;;9.48;6.78;;;2.90;99.90;;;;;;5033730;28;20465;-75
2021/04/14 06:36:45;;;;;;;9.95;6.38;;;3.20;99.90;;;;;;5029236;28;20073;-75
2021/04/14 06:39:11;;;;;;;7.60;5.03;;;3.40;99.90;;;;;;5057181;28;20081;-75
2021/04/14 06:44:23;;;;;;;7.68;4.85;;;3.20;99.90;;;;;;5052928;28;20072;-74
2021/04/14 06:46:51;;;;;;;10.30;5.75;;;3.30;99.90;;;;;;5048681;28;20093;-75
2021/04/14 06:49:20;;;;;;;7.15;4.47;;;3.30;99.90;;;;;;5049692;28;20127;-79
2021/04/14 06:52:07;;;;;;;10.30;4.03;;;3.30;99.90;;;;;;5065637;28;20131;-73
2021/04/14 06:54:43;;;;;;;5.82;2.95;;;3.20;99.90;;;;;;5048745;28;20096;-75
2021/04/14 06:57:17;;;;;;;8.57;5.03;;;3.20;99.90;;;;;;5054468;28;20080;-75
2021/04/14 06:59:51;;;;;;;9.10;3.85;;;3.30;99.90;;;;;;5053681;28;20087;-75
2021/04/14 07:02:39;;;;;;;5.57;3.15;;;3.20;99.90;;;;;;5049718;28;20175;-76
2021/04/14 07:05:10;;;;;;;6.15;3.15;;;3.40;99.90;;;;;;5017872;28;20135;-75
2021/04/14 07:07:39;;;;;;;5.43;3.45;;;3.30;99.90;;;;;;5030620;28;20625;-74
2021/04/14 07:10:20;;;;;;;6.35;4.07;;;3.20;99.90;;;;;;5044779;28;20077;-76
2021/04/14 07:12:46;;;;;;;4.05;3.13;;;3.30;99.90;;;;;;5038281;28;20175;-76
2021/04/14 07:15:17;;;;;;;4.38;2.92;;;3.40;99.90;;;;;;5049829;28;20176;-76
2021/04/14 07:17:54;;;;;;;4.85;3.67;;;3.50;99.90;;;;;;5048143;28;20104;-74
2021/04/14 07:20:26;;;;;;;4.05;2.85;;;3.50;99.90;;;;;;5057961;28;20077;-74
2021/04/14 07:23:27;;;;;;;5.70;3.13;;;3.60;99.90;;;;;;5067389;28;20089;-74
2021/04/14 07:25:58;;;;;;;7.15;3.30;;;3.60;99.90;;;;;;5034051;28;20447;-74
2021/04/14 07:28:31;;;;;;;8.00;3.35;;;3.50;99.90;;;;;;5048939;28;20120;-73
2021/04/14 07:31:23;;;;;;;3.92;2.58;;;3.70;99.90;;;;;;5030669;28;20586;-75
2021/04/14 07:34:33;;;;;;;6.20;3.60;;;3.80;99.90;;;;;;5030361;28;20092;-75
2021/04/14 07:37:18;;;;;;;6.32;3.38;;;3.80;99.90;;;;;;5041544;28;20119;-75
2021/04/14 07:40:30;;;;;;;7.68;3.60;;;3.80;99.90;;;;;;5050691;28;20073;-76
2021/04/14 07:43:17;;;;;;;6.55;3.95;;;3.90;99.90;;;;;;5020453;28;20304;-75
2021/04/14 07:45:43;;;;;;;8.98;3.50;;;3.90;99.90;;;;;;5045657;28;20633;-73
2021/04/14 07:48:10;;;;;;;4.22;3.25;;;4.10;99.90;;;;;;5033377;28;20101;-75
2021/04/14 07:50:45;;;;;;;6.25;3.22;;;4.20;99.90;;;;;;5051413;28;20549;-75
2021/04/14 07:53:25;;;;;;;11.40;4.43;;;4.30;99.90;;;;;;5051512;28;20077;-76
2021/04/14 07:56:18;;;;;;;11.10;3.83;;;4.20;99.90;;;;;;5054510;28;20081;-74
2021/04/14 07:58:45;;;;;;;6.60;3.50;;;4.10;99.90;;;;;;5049060;28;20296;-75
2021/04/14 08:01:16;;;;;;;6.25;2.92;;;4.20;99.90;;;;;;5053845;28;20188;-79
2021/04/14 08:03:43;;;;;;;4.80;3.10;;;4.10;99.90;;;;;;5056885;28;20694;-75
2021/04/14 08:06:11;;;;;;;5.88;2.97;;;4.10;99.90;;;;;;5051836;28;20149;-74
2021/04/14 08:08:39;;;;;;;9.55;4.63;;;4.30;99.90;;;;;;5046578;28;20088;-73
2021/04/14 08:11:14;;;;;;;4.97;4.03;;;4.30;99.90;;;;;;5065006;28;20155;-76
2021/04/14 08:13:42;;;;;;;5.50;3.30;;;4.40;99.90;;;;;;5051271;28;20073;-76
2021/04/14 08:16:34;;;;;;;7.78;3.60;;;4.50;99.90;;;;;;5064311;28;20495;-74
2021/04/14 08:19:24;;;;;;;5.43;3.40;;;4.50;99.90;;;;;;5041422;28;20085;-74
2021/04/14 08:22:02;;;;;;;9.80;3.40;;;4.50;99.90;;;;;;5061972;28;20555;-75
2021/04/14 08:24:36;;;;;;;6.53;2.97;;;4.60;99.90;;;;;;5068030;28;20127;-75
2021/04/14 08:27:11;;;;;;;;;;;4.60;99.90;;;;;;5063143;28;20085;-76
2021/04/14 08:29:37;;;;;;;8.57;3.42;;;4.50;99.90;;;;;;5061884;28;19961;-76
2021/04/14 08:32:12;;;;;;;5.25;2.92;;;4.50;99.90;;;;;;5066877;28;20524;-75
2021/04/14 08:34:52;;;;;;;9.30;2.65;;;4.40;99.90;;;;;;5052197;28;20118;-74
2021/04/14 08:37:20;;;;;;;2.70;2.45;;;4.50;99.90;;;;;;5035732;28;20092;-76
2021/04/14 08:39:55;;;;;;;3.92;2.33;;;4.50;99.90;;;;;;5056866;28;20160;-73
2021/04/14 08:42:21;;;;;;;7.13;2.70;;;4.50;99.90;;;;;;5058230;28;20141;-75
2021/04/14 08:44:53;;;;;;;4.85;2.20;;;4.60;99.90;;;;;;5045049;28;20595;-75
2021/04/14 08:47:34;;;;;;;4.45;2.33;;;4.50;99.90;;;;;;5061025;28;20097;-75
2021/04/14 08:50:04;;;;;;;4.22;2.55;;;4.60;99.90;;;;;;5033749;28;20073;-72
2021/04/14 08:52:31;;;;;;;2.72;2.13;;;4.60;99.90;;;;;;5057309;28;20109;-74
2021/04/14 08:54:59;;;;;;;2.80;1.95;;;4.60;99.90;;;;;;5062561;28;20069;-75
2021/04/14 08:57:24;;;;;;;3.15;1.90;;;4.50;99.90;;;;;;5050816;28;20112;-70
2021/04/14 08:59:50;;;;;;;3.90;2.03;;;4.50;99.90;;;;;;5054223;28;20104;-70
2021/04/14 09:02:20;;;;;;;4.82;1.95;;;4.50;99.90;;;;;;5039515;28;20097;-70
2021/04/14 09:04:49;;;;;;;2.72;1.75;;;4.50;99.90;;;;;;5037958;28;20159;-71
2021/04/14 09:07:17;;;;;;;6.25;2.08;;;4.50;99.90;;;;;;5050674;28;20093;-70
2021/04/14 09:09:49;;;;;;;2.78;1.60;;;4.60;99.90;;;;;;5051889;28;20071;-71
2021/04/14 09:12:16;;;;;;;4.45;2.08;;;4.60;99.60;;;;;;5056538;28;20090;-72
2021/04/14 09:14:42;;;;;;;4.35;1.77;;;4.60;99.90;;;;;;5051919;28;20116;-73
2021/04/14 09:17:13;;;;;;;7.60;2.30;;;4.60;99.90;;;;;;5050488;28;20070;-72
2021/04/14 09:19:41;;;;;;;5.22;2.80;;;4.80;99.90;;;;;;5045866;28;20535;-74
2021/04/14 09:22:13;;;;;;;3.90;2.10;;;4.90;99.90;;;;;;5055422;28;20523;-72
2021/04/14 09:24:48;;;;;;;5.45;2.63;;;4.90;99.90;;;;;;5050271;28;20069;-71
2021/04/14 09:27:22;;;;;;;5.28;2.33;;;4.80;99.90;;;;;;5048925;28;20096;-72
2021/04/14 09:29:53;;;;;;;4.53;3.38;;;4.70;99.90;;;;;;5050273;28;20080;-72
2021/04/14 09:32:36;;;;;;;4.45;2.70;;;4.70;99.90;;;;;;5040927;28;20251;-72
2021/04/14 09:35:36;;;;;;;5.75;2.40;;;4.90;99.90;;;;;;5051530;28;20113;-72
2021/04/14 09:38:07;;;;;;;4.00;2.13;;;4.70;99.90;;;;;;5037509;28;20089;-72
2021/04/14 09:40:35;;;;;;;4.43;2.40;;;4.60;99.90;;;;;;5059691;28;20179;-74
2021/04/14 09:43:26;;;;;;;3.13;2.17;;;4.60;99.90;;;;;;5040620;28;20089;-73
2021/04/14 09:45:59;;;;;;;3.10;1.15;;;4.50;99.90;;;;;;5042360;28;20080;-74
2021/04/14 09:48:38;;;;;;;1.90;1.52;;;4.80;99.90;;;;;;5062085;28;20234;-74
2021/04/14 09:51:14;;;;;;;7.10;1.95;;;4.80;99.90;;;;;;5060110;28;20120;-74
2021/04/14 09:53:40;;;;;;;4.30;1.70;;;4.90;99.90;;;;;;5060226;28;20081;-74
2021/04/14 09:56:12;;;;;;;2.88;1.83;;;4.90;99.90;;;;;;5057573;28;20442;-75
2021/04/14 09:58:44;;;;;;;4.40;2.10;;;4.80;99.90;;;;;;5058663;28;20073;-74
2021/04/14 10:01:19;;;;;;;3.50;1.70;;;4.90;99.90;;;;;;5057408;28;20238;-73
2021/04/14 10:03:47;;;;;;;3.20;1.90;;;4.90;99.90;;;;;;5042521;28;20084;-74
2021/04/14 10:06:18;;;;;;;3.55;1.70;;;5.00;99.00;;;;;;5066029;28;20069;-74
2021/04/14 10:08:45;;;;;;;2.30;1.83;;;5.20;99.70;;;;;;5056825;28;20131;-74
2021/04/14 10:11:23;;;;;;;3.38;1.70;;;5.20;99.90;;;;;;5061276;28;20093;-74
2021/04/14 10:13:49;;;;;;;3.20;2.08;;;5.30;99.90;;;;;;5056945;28;20069;-74
2021/04/14 10:16:20;;;;;;;4.28;2.03;;;5.40;99.90;;;;;;5050867;28;20534;-74
2021/04/14 10:18:51;;;;;;;4.30;1.80;;;5.30;99.90;;;;;;5052216;28;20202;-75
2021/04/14 10:21:24;;;;;;;4.88;1.88;;;5.30;99.90;;;;;;5051475;28;20102;-73
2021/04/14 10:24:06;;;;;;;4.68;1.75;;;5.30;99.90;;;;;;5050305;28;20085;-78
2021/04/14 10:26:34;;;;;;;3.50;1.98;;;5.20;99.90;;;;;;5059534;28;20080;-75
2021/04/14 10:29:04;;;;;;;4.25;2.03;;;5.20;99.90;;;;;;5051454;28;20540;-76
2021/04/14 10:31:30;;;;;;;2.40;1.75;;;5.20;99.90;;;;;;5061847;28;20494;-74
2021/04/14 10:34:12;;;;;;;4.43;2.08;;;5.30;99.90;;;;;;5054816;28;20088;-73
2021/04/14 10:36:43;;;;;;;3.97;2.00;;;5.60;99.90;;;;;;5061980;28;20088;-73
2021/04/14 10:39:12;;;;;;;5.30;1.60;;;5.50;99.90;;;;;;5066221;28;20163;-74
2021/04/14 10:41:38;;;;;;;3.85;1.77;;;5.60;99.90;;;;;;5058561;28;20158;-73
2021/04/14 10:44:14;;;;;;;3.15;1.75;;;5.80;99.90;;;;;;5048987;28;20081;-75
2021/04/14 10:46:40;;;;;;;3.17;1.30;;;5.80;99.90;;;;;;5051859;28;20158;-73
2021/04/14 10:49:11;;;;;;;1.85;0.90;;;5.70;98.20;;;;;;5035065;28;20081;-73
2021/04/14 10:51:46;;;;;;;2.70;1.17;;;5.60;96.10;;;;;;5061685;28;20139;-75
2021/04/14 10:54:16;;;;;;;1.38;0.90;;;5.50;99.50;;;;;;5067603;28;20072;-73
2021/04/14 10:56:42;;;;;;;2.35;1.63;;;4.40;99.90;;;;;;5058222;28;20078;-75
2021/04/14 10:59:12;;;;;;;7.15;2.00;;;4.50;99.90;;;;;;5052204;28;20084;-78
2021/04/14 11:01:41;;;;;;;2.60;2.05;;;4.80;99.90;;;;;;5066899;28;20218;-76
2021/04/14 11:04:52;;;;;;;5.68;2.65;;;5.00;99.90;;;;;;5052104;28;20088;-74
2021/04/14 11:07:22;;;;;;;2.58;1.75;;;5.00;99.90;;;;;;4967654;28;20225;-74
2021/04/14 11:09:50;;;;;;;2.97;1.50;;;5.10;99.90;;;;;;5037551;28;20089;-74
2021/04/14 11:12:22;;;;;;;4.55;1.60;;;5.20;99.90;;;;;;5031628;28;20185;-74
2021/04/14 11:14:51;;;;;;;2.65;1.50;;;5.20;99.90;;;;;;5048764;28;20085;-74
2021/04/14 11:17:39;;;;;;;1.92;1.27;;;5.30;99.90;;;;;;5048880;28;20085;-73
2021/04/14 11:20:15;;;;;;;3.08;1.27;;;5.40;99.90;;;;;;5050498;28;20090;-74
2021/04/14 11:22:42;;;;;;;3.00;1.40;;;5.30;99.90;;;;;;5054455;28;20213;-74
2021/04/14 11:25:08;;;;;;;2.10;1.10;;;5.10;99.90;;;;;;5054170;28;20081;-76
2021/04/14 11:27:34;;;;;;;1.83;1.33;;;5.10;99.90;;;;;;5055858;28;20096;-75
2021/04/14 11:30:06;;;;;;;2.22;1.30;;;5.00;99.90;;;;;;5049042;28;20089;-76
2021/04/14 11:32:32;;;;;;;2.60;1.60;;;5.00;99.90;;;;;;5049026;28;20613;-74
2021/04/14 11:35:01;;;;;;;2.20;1.27;;;5.00;99.90;;;;;;5061959;28;20081;-76
2021/04/14 11:37:36;;;;;;;4.53;1.73;;;5.00;99.90;;;;;;5036602;28;20081;-75
2021/04/14 11:40:03;;;;;;;;;;;5.00;99.90;;;;;;5048379;28;20087;-74
2021/04/14 11:42:40;;;;;;;4.50;1.10;;;5.20;99.90;;;;;;5053906;28;20458;-73
2021/04/14 11:45:07;;;;;;;3.50;1.35;;;5.20;99.90;;;;;;5050387;28;20091;-74
2021/04/14 11:47:35;;;;;;;5.00;1.20;;;5.30;99.90;;;;;;5047858;28;20466;-74
2021/04/14 11:50:22;;;;;;;0.90;0.90;;;5.20;99.90;;;;;;5048884;28;20093;-75
2021/04/14 11:52:51;;;;;;;1.50;1.00;;;5.10;99.90;;;;;;5030757;28;20103;-73
2021/04/14 11:55:20;;;;;;;1.73;0.80;;;5.30;99.90;;;;;;5046613;28;20076;-74
2021/04/14 11:57:48;;;;;;;1.92;1.17;;;5.20;99.60;;;;;;5051351;28;20073;-75
2021/04/14 12:00:17;;;;;;;1.33;0.90;;;5.30;99.90;;;;;;5048544;28;20078;-75
2021/04/14 12:02:44;;;;;;;1.20;0.90;;;5.40;99.30;;;;;;5061303;28;20120;-73
2021/04/14 12:05:11;;;;;;;1.75;0.90;;;5.50;98.20;;;;;;5047486;28;20535;-73
2021/04/14 12:07:37;;;;;;;4.30;1.30;;;5.50;96.90;;;;;;5060068;28;20170;-73
2021/04/14 12:10:04;;;;;;;3.05;1.30;;;5.60;96.60;;;;;;5050098;28;20619;-73
2021/04/14 12:12:30;;;;;;;2.22;1.20;;;5.60;96.30;;;;;;5049621;28;20117;-75
2021/04/14 12:14:55;;;;;;;2.88;1.40;;;5.80;99.60;;;;;;5056201;28;20108;-73
2021/04/14 12:17:21;;;;;;;2.85;1.67;;;5.80;96.00;;;;;;5059765;28;20420;-73
2021/04/14 12:19:47;;;;;;;1.60;1.17;;;5.90;96.20;;;;;;5066395;28;20131;-73
2021/04/14 12:22:13;;;;;;;2.97;1.27;;;5.90;95.90;;;;;;5061269;28;20093;-73
2021/04/14 12:24:44;;;;;;;2.97;1.20;;;5.90;92.10;;;;;;5049212;28;20077;-73
2021/04/14 12:27:10;;;;;;;1.80;1.08;;;6.00;90.00;;;;;;5062348;28;20085;-74
2021/04/14 12:29:37;;;;;;;2.80;1.10;;;6.00;86.00;;;;;;5056357;28;20073;-76
2021/04/14 12:32:03;;;;;;;2.92;1.27;;;6.10;92.60;;;;;;5062893;28;20137;-76
2021/04/14 12:34:28;;;;;;;2.13;1.10;;;6.00;90.50;;;;;;5056142;28;20077;-73
2021/04/14 12:36:54;;;;;;;3.15;1.42;;;6.10;90.90;;;;;;5048496;28;20558;-74
2021/04/14 12:39:20;;;;;;;2.83;1.40;;;6.00;87.80;;;;;;5048038;28;20084;-74
2021/04/14 12:41:45;;;;;;;2.53;1.10;;;6.10;87.70;;;;;;5044207;28;20097;-74
2021/04/14 12:44:11;;;;;;;1.98;1.08;;;6.10;87.40;;;;;;5049298;28;20104;-74
2021/04/14 12:46:43;;;;;;;1.67;0.98;;;6.10;78.30;;;;;;5051493;28;20105;-73
2021/04/14 12:49:12;;;;;;;2.53;1.23;;;6.30;88.60;;;;;;5059082;28;20074;-74
2021/04/14 12:51:42;;;;;;;1.42;1.13;;;6.20;81.30;;;;;;5058936;28;20105;-73
2021/04/14 12:54:19;;;;;;;1.63;1.05;;;6.20;80.00;;;;;;5049228;28;20074;-73
2021/04/14 12:56:55;;;;;;;1.50;1.13;;;6.40;79.00;;;;;;5055518;28;20077;-73
2021/04/14 12:59:46;;;;;;;2.20;1.10;;;6.40;87.90;;;;;;5052573;28;20123;-74
2021/04/14 13:02:15;;;;;;;3.95;1.50;;;6.40;85.30;;;;;;5044454;28;20479;-74
2021/04/14 13:04:55;;;;;;;2.80;1.13;;;6.30;95.30;;;;;;5050747;28;20139;-74
2021/04/14 13:07:25;;;;;;;3.60;1.88;;;6.20;93.40;;;;;;5058811;28;20163;-74
2021/04/14 13:09:53;;;;;;;2.42;1.70;;;6.30;98.50;;;;;;5057306;28;20143;-73
2021/04/14 13:12:30;;;;;;;2.40;1.77;;;6.20;99.90;;;;;;5047440;28;20444;-75
2021/04/14 13:14:56;;;;;;;3.45;1.75;;;6.10;99.90;;;;;;5051724;28;20113;-75